Time;durP1;ratioP1;P1;durP2;ratioP2;P2;SDS_P1;SDS_P2;PMS_P1;PMS_P2;Temp;Humidity;BMP_temperature;BMP_pressure;BME280_temperature;BME280_humidity;BME280_pressure;Samples;Min_cycle;Max_cycle;Signal;HPM_P1;HPM_P2
2021/04/05 00:01:37;;;;;;;7.13;4.90;;;8.00;25.20;;;;;;10493243;28;20751;-71
2021/04/05 00:06:39;;;;;;;5.80;4.93;;;8.00;25.20;;;;;;10496742;28;20235;-71
2021/04/05 00:11:42;;;;;;;6.67;5.60;;;8.00;25.30;;;;;;10509300;28;20244;-71
2021/04/05 00:16:44;;;;;;;6.37;4.83;;;8.00;25.50;;;;;;10483219;28;20244;-71
2021/04/05 00:21:47;;;;;;;8.17;5.33;;;8.00;25.30;;;;;;10492220;28;20330;-71
2021/04/05 00:26:50;;;;;;;6.97;5.00;;;8.00;25.40;;;;;;10491535;28;20220;-71
2021/04/05 00:31:52;;;;;;;5.20;4.33;;;8.00;25.40;;;;;;10491590;28;20235;-74
2021/04/05 00:36:54;;;;;;;6.03;4.60;;;7.80;25.30;;;;;;10505456;28;20730;-74
2021/04/05 00:41:58;;;;;;;6.33;5.07;;;7.80;25.30;;;;;;10514827;28;20232;-74
2021/04/05 00:47:00;;;;;;;6.13;4.77;;;7.80;25.60;;;;;;10506304;28;20232;-74
2021/04/05 00:52:05;;;;;;;6.50;4.27;;;7.80;25.50;;;;;;10520201;28;20223;-73
2021/04/05 00:57:08;;;;;;;4.93;4.23;;;7.80;25.60;;;;;;10519021;28;20238;-73
2021/04/05 01:02:11;;;;;;;6.57;4.73;;;7.80;26.10;;;;;;10500613;28;20236;-73
2021/04/05 01:07:13;;;;;;;5.67;4.50;;;7.80;25.30;;;;;;10523658;28;20308;-73
2021/04/05 01:12:16;;;;;;;5.63;4.93;;;7.80;25.40;;;;;;10513551;28;20227;-73
2021/04/05 01:17:18;;;;;;;5.13;4.40;;;7.70;25.40;;;;;;10515131;28;20228;-73
2021/04/05 01:22:21;;;;;;;4.70;3.70;;;7.60;25.40;;;;;;10496400;28;20259;-73
2021/04/05 01:27:23;;;;;;;4.77;4.27;;;7.60;25.60;;;;;;10504518;28;20225;-74
2021/04/05 01:32:26;;;;;;;5.13;4.37;;;7.60;25.50;;;;;;10509560;28;20700;-74
2021/04/05 01:37:29;;;;;;;5.03;4.53;;;7.50;25.60;;;;;;10523714;28;20242;-73
2021/04/05 01:42:31;;;;;;;6.57;4.70;;;7.50;25.60;;;;;;10497797;28;20582;-74
2021/04/05 01:47:33;;;;;;;6.10;4.73;;;7.50;25.60;;;;;;10508150;28;20323;-74
2021/04/05 01:52:40;;;;;;;5.10;4.27;;;7.40;25.60;;;;;;10528112;28;20715;-73
2021/04/05 01:57:43;;;;;;;6.27;4.67;;;7.30;26.00;;;;;;10512168;28;20240;-73
2021/04/05 02:02:47;;;;;;;4.07;3.67;;;7.30;25.80;;;;;;10501336;28;20237;-76
2021/04/05 02:07:51;;;;;;;5.77;4.70;;;7.20;25.70;;;;;;10508471;28;20239;-74
2021/04/05 02:12:55;;;;;;;4.37;3.97;;;7.20;25.90;;;;;;10511019;28;20295;-75
2021/04/05 02:17:57;;;;;;;5.27;3.83;;;7.20;25.90;;;;;;10505147;28;20228;-73
2021/04/05 02:23:01;;;;;;;5.37;3.90;;;7.10;25.80;;;;;;10518126;28;20234;-73
2021/04/05 02:28:04;;;;;;;6.23;4.27;;;7.10;25.90;;;;;;10516060;28;20212;-73
2021/04/05 02:33:07;;;;;;;4.17;3.77;;;7.10;25.90;;;;;;10500618;28;20679;-73
2021/04/05 02:38:11;;;;;;;6.60;4.77;;;7.10;25.80;;;;;;10532237;28;20240;-73
2021/04/05 02:43:14;;;;;;;5.70;3.93;;;7.00;26.10;;;;;;10506974;28;20236;-73
2021/04/05 02:48:18;;;;;;;5.20;4.20;;;7.00;25.90;;;;;;10498052;28;20374;-73
2021/04/05 02:53:21;;;;;;;6.30;3.97;;;6.80;26.00;;;;;;10509530;28;20238;-73
2021/04/05 02:58:23;;;;;;;5.07;4.43;;;6.70;26.00;;;;;;10501688;28;20261;-73
2021/04/05 03:03:26;;;;;;;6.13;4.27;;;6.60;26.10;;;;;;10511317;28;20229;-73
2021/04/05 03:08:29;;;;;;;4.43;4.03;;;6.60;26.20;;;;;;10511213;28;20224;-73
2021/04/05 03:13:33;;;;;;;5.00;4.27;;;6.60;26.30;;;;;;10491783;28;20232;-73
2021/04/05 03:18:36;;;;;;;6.60;3.97;;;6.60;26.30;;;;;;10502614;28;20228;-73
2021/04/05 03:23:40;;;;;;;5.37;4.33;;;6.60;26.30;;;;;;10505629;28;20315;-73
2021/04/05 03:28:43;;;;;;;4.63;4.23;;;6.60;26.50;;;;;;10511000;28;20239;-73
2021/04/05 03:33:49;;;;;;;4.37;3.97;;;6.60;26.30;;;;;;10512525;28;20225;-73
2021/04/05 03:38:53;;;;;;;4.17;3.80;;;6.60;26.90;;;;;;10507343;28;20224;-73
2021/04/05 03:44:00;;;;;;;5.57;3.70;;;6.50;26.50;;;;;;10502036;28;20258;-73
2021/04/05 03:49:15;;;;;;;3.93;3.63;;;6.50;26.90;;;;;;10509008;28;20220;-73
2021/04/05 03:54:22;;;;;;;3.53;3.20;;;6.50;26.90;;;;;;10489939;28;20227;-73
2021/04/05 03:59:27;;;;;;;4.30;3.90;;;6.50;26.80;;;;;;10492339;28;20224;-73
2021/04/05 04:04:33;;;;;;;6.20;4.53;;;6.50;26.90;;;;;;10510808;28;20228;-73
2021/04/05 04:09:39;;;;;;;3.67;3.37;;;6.50;26.60;;;;;;10495078;28;20347;-73
2021/04/05 04:14:43;;;;;;;4.00;3.63;;;6.40;26.60;;;;;;10506241;28;20586;-73
2021/04/05 04:19:46;;;;;;;4.23;3.80;;;6.40;26.60;;;;;;10524393;28;20220;-73
2021/04/05 04:24:49;;;;;;;4.40;4.00;;;6.30;26.60;;;;;;10504420;28;20227;-73
2021/04/05 04:29:53;;;;;;;4.10;3.70;;;6.30;26.70;;;;;;10523382;28;20223;-73
2021/04/05 04:34:56;;;;;;;4.07;3.67;;;6.30;26.70;;;;;;10518241;28;20227;-73
2021/04/05 04:39:59;;;;;;;3.70;3.30;;;6.20;26.60;;;;;;10498328;28;20234;-73
2021/04/05 04:45:01;;;;;;;4.97;3.87;;;6.20;27.20;;;;;;10509977;28;20231;-73
2021/04/05 04:50:04;;;;;;;4.40;4.00;;;6.20;26.70;;;;;;10525044;28;20699;-73
2021/04/05 04:55:09;;;;;;;3.47;3.17;;;6.10;26.60;;;;;;10509113;28;20235;-73
2021/04/05 05:00:13;;;;;;;4.57;3.53;;;6.20;26.60;;;;;;10507770;28;20224;-73
2021/04/05 05:05:17;;;;;;;3.90;3.27;;;6.20;26.70;;;;;;10510820;28;20238;-73
2021/04/05 05:10:21;;;;;;;4.40;3.73;;;6.10;26.60;;;;;;10516782;28;20224;-73
2021/04/05 05:15:23;;;;;;;4.83;3.33;;;6.10;26.90;;;;;;10519938;28;20688;-73
2021/04/05 05:20:26;;;;;;;4.17;3.57;;;6.10;26.80;;;;;;10523221;28;20597;-73
2021/04/05 05:25:31;;;;;;;5.47;3.50;;;6.10;26.90;;;;;;10507637;28;20596;-73
2021/04/05 05:30:35;;;;;;;4.63;3.90;;;6.10;27.20;;;;;;10510140;28;20577;-74
2021/04/05 05:35:37;;;;;;;4.43;4.00;;;6.10;27.10;;;;;;10514842;28;20596;-73
2021/04/05 05:40:42;;;;;;;6.17;3.77;;;6.10;27.10;;;;;;10533282;28;20235;-73
2021/04/05 05:46:12;;;;;;;6.87;3.93;;;6.10;27.30;;;;;;10518413;28;20575;-73
2021/04/05 05:51:23;;;;;;;4.07;3.67;;;6.10;28.10;;;;;;10492266;28;20263;-73
2021/04/05 05:56:44;;;;;;;6.83;3.90;;;6.20;27.80;;;;;;10500560;28;20258;-73
2021/04/05 06:02:02;;;;;;;4.03;3.30;;;6.20;28.50;;;;;;10515872;28;20242;-73
2021/04/05 06:07:11;;;;;;;4.30;3.57;;;6.30;28.60;;;;;;10494151;28;20314;-72
2021/04/05 06:12:22;;;;;;;4.20;3.57;;;6.50;28.40;;;;;;10508114;28;20231;-72
2021/04/05 06:17:44;;;;;;;5.03;3.80;;;6.60;28.70;;;;;;10495113;28;20238;-71
2021/04/05 06:23:19;;;;;;;4.90;3.80;;;6.80;29.10;;;;;;10488566;28;20280;-71
2021/04/05 06:28:29;;;;;;;4.90;3.50;;;7.00;28.70;;;;;;10489476;28;20246;-71
2021/04/05 06:33:33;;;;;;;4.17;3.30;;;7.30;28.50;;;;;;10496106;28;20252;-72
2021/04/05 06:38:40;;;;;;;4.87;3.67;;;7.70;28.20;;;;;;10507003;28;20232;-72
2021/04/05 06:43:59;;;;;;;4.70;3.33;;;8.10;27.90;;;;;;10500272;28;20712;-73
2021/04/05 06:49:27;;;;;;;7.07;3.60;;;8.50;28.10;;;;;;10494635;28;20703;-72
2021/04/05 06:54:59;;;;;;;6.00;5.00;;;8.80;28.30;;;;;;10509015;28;20235;-73
2021/04/05 07:00:08;;;;;;;5.27;3.47;;;9.10;27.90;;;;;;10487494;28;20227;-72
2021/04/05 07:05:23;;;;;;;4.37;3.03;;;9.40;27.60;;;;;;10487311;28;20229;-72
2021/04/05 07:10:29;;;;;;;5.13;3.17;;;9.50;27.50;;;;;;10506556;28;20228;-73
2021/04/05 07:15:43;;;;;;;7.53;3.67;;;9.80;27.60;;;;;;10505496;28;20236;-72
2021/04/05 07:21:01;;;;;;;3.93;3.20;;;9.90;27.40;;;;;;10506941;28;20310;-72
2021/04/05 07:26:14;;;;;;;7.47;4.90;;;10.20;26.80;;;;;;10497225;28;20234;-72
2021/04/05 07:31:26;;;;;;;5.00;4.50;;;10.40;26.40;;;;;;10496713;28;20722;-72
2021/04/05 07:36:38;;;;;;;5.83;3.70;;;10.60;26.60;;;;;;10501037;28;20228;-72
2021/04/05 07:41:49;;;;;;;6.13;4.83;;;10.80;26.40;;;;;;10507017;28;20228;-72
2021/04/05 07:47:00;;;;;;;5.17;4.10;;;11.00;26.20;;;;;;10512568;28;20223;-72
2021/04/05 07:52:23;;;;;;;7.23;3.83;;;11.20;26.20;;;;;;10511900;28;20304;-72
2021/04/05 07:57:32;;;;;;;9.37;3.43;;;11.40;26.10;;;;;;10498633;28;20224;-72
2021/04/05 08:02:51;;;;;;;4.60;3.10;;;11.50;26.00;;;;;;10503926;28;20236;-72
2021/04/05 08:08:12;;;;;;;10.30;5.53;;;11.70;25.90;;;;;;10487742;28;20220;-72
2021/04/05 08:13:28;;;;;;;5.20;3.43;;;11.80;25.60;;;;;;10516498;28;20223;-72
2021/04/05 08:18:37;;;;;;;4.40;3.60;;;12.00;25.50;;;;;;10495261;28;20609;-72
2021/04/05 08:23:57;;;;;;;4.23;3.10;;;12.20;25.40;;;;;;10495623;28;20235;-72
2021/04/05 08:29:07;;;;;;;4.17;3.60;;;12.30;25.60;;;;;;10496988;28;20250;-72
2021/04/05 08:34:25;;;;;;;4.60;3.10;;;12.50;25.10;;;;;;10504072;28;20678;-72
2021/04/05 08:39:34;;;;;;;5.00;3.63;;;12.70;25.10;;;;;;10505528;28;20593;-72
2021/04/05 08:44:43;;;;;;;4.60;3.60;;;12.90;25.10;;;;;;10479159;28;20220;-72
2021/04/05 08:49:48;;;;;;;5.17;3.57;;;13.10;24.80;;;;;;10475592;28;20247;-71
2021/04/05 08:54:52;;;;;;;4.37;3.70;;;13.30;25.00;;;;;;10491013;28;20778;-71
2021/04/05 08:59:58;;;;;;;4.30;3.73;;;13.40;25.10;;;;;;10503956;28;20238;-72
2021/04/05 09:05:01;;;;;;;3.73;3.43;;;13.60;24.90;;;;;;10507197;28;20788;-72
2021/04/05 09:10:06;;;;;;;4.40;2.93;;;13.80;24.80;;;;;;10510538;28;20223;-72
2021/04/05 09:15:42;;;;;;;4.33;3.37;;;14.00;24.60;;;;;;10505563;28;20228;-72
2021/04/05 09:21:08;;;;;;;5.30;3.40;;;14.10;24.20;;;;;;10462895;28;20228;-71
2021/04/05 09:26:39;;;;;;;3.50;3.10;;;14.20;24.10;;;;;;10484471;28;20224;-72
2021/04/05 09:32:26;;;;;;;6.13;3.00;;;14.20;24.00;;;;;;10503496;28;20231;-71
2021/04/05 09:38:16;;;;;;;5.80;3.00;;;14.40;24.10;;;;;;10477869;28;20220;-71
2021/04/05 09:44:03;;;;;;;8.17;3.23;;;14.50;24.20;;;;;;10475255;28;20231;-72
2021/04/05 09:49:17;;;;;;;5.73;3.50;;;14.60;23.90;;;;;;10476904;28;20226;-72
2021/04/05 09:54:29;;;;;;;4.60;3.20;;;14.80;23.80;;;;;;10486361;28;20225;-71
2021/04/05 09:59:40;;;;;;;4.47;2.97;;;14.90;23.40;;;;;;10507394;28;20257;-71
2021/04/05 10:04:46;;;;;;;6.67;4.80;;;15.10;22.90;;;;;;10497757;28;20228;-71
2021/04/05 10:09:51;;;;;;;6.27;4.03;;;15.20;23.00;;;;;;10482079;28;20232;-71
2021/04/05 10:14:57;;;;;;;4.93;4.00;;;15.30;23.40;;;;;;10495182;28;20225;-71
2021/04/05 10:20:07;;;;;;;6.93;3.70;;;15.40;22.20;;;;;;10501571;28;20232;-71
2021/04/05 10:25:12;;;;;;;8.27;3.37;;;15.50;22.30;;;;;;10493828;28;20353;-71
2021/04/05 10:30:16;;;;;;;6.83;3.70;;;15.60;22.30;;;;;;10505973;28;20548;-71
2021/04/05 10:35:24;;;;;;;3.87;3.50;;;15.70;22.40;;;;;;10496629;28;20234;-71
2021/04/05 10:40:29;;;;;;;7.43;2.93;;;15.70;22.40;;;;;;10506771;28;20232;-71
2021/04/05 10:45:36;;;;;;;4.33;2.97;;;15.70;21.40;;;;;;10492323;28;20216;-71
2021/04/05 10:50:45;;;;;;;6.03;2.70;;;15.80;22.00;;;;;;10501206;28;20237;-71
2021/04/05 10:55:52;;;;;;;4.30;2.70;;;15.80;21.60;;;;;;10488412;28;20224;-71
2021/04/05 11:00:59;;;;;;;7.33;2.83;;;15.90;21.50;;;;;;10497620;28;20224;-72
2021/04/05 11:06:07;;;;;;;7.50;2.80;;;16.00;21.40;;;;;;10512935;28;20291;-71
2021/04/05 11:11:12;;;;;;;4.50;2.67;;;16.10;20.70;;;;;;10507623;28;20307;-71
2021/04/05 11:16:18;;;;;;;6.40;2.57;;;16.20;21.10;;;;;;10501525;28;20259;-72
2021/04/05 11:21:23;;;;;;;3.40;2.50;;;16.30;21.40;;;;;;10493306;28;20224;-72
2021/04/05 11:26:32;;;;;;;3.87;2.47;;;16.50;21.20;;;;;;10493402;28;20232;-72
2021/04/05 11:31:36;;;;;;;3.53;2.50;;;16.60;20.60;;;;;;10493139;28;20239;-71
2021/04/05 11:36:42;;;;;;;4.03;2.90;;;16.70;20.90;;;;;;10498213;28;20281;-72
2021/04/05 11:41:46;;;;;;;4.37;2.93;;;16.70;20.60;;;;;;10489594;28;20266;-72
2021/04/05 11:46:49;;;;;;;5.90;2.60;;;16.70;20.60;;;;;;10485044;28;20817;-72
2021/04/05 11:52:03;;;;;;;4.23;2.70;;;16.70;20.90;;;;;;10489662;28;20215;-72
2021/04/05 11:57:09;;;;;;;4.70;2.60;;;16.80;20.10;;;;;;10497867;28;20228;-72
2021/04/05 12:02:21;;;;;;;4.80;3.10;;;16.90;20.10;;;;;;10484504;28;20712;-71
2021/04/05 12:07:26;;;;;;;3.83;2.50;;;16.90;19.40;;;;;;10486707;28;20319;-71
2021/04/05 12:12:34;;;;;;;4.03;2.63;;;17.00;20.20;;;;;;10489149;28;20247;-72
2021/04/05 12:17:36;;;;;;;4.87;2.60;;;17.10;19.90;;;;;;10483386;28;20258;-71
2021/04/05 12:22:40;;;;;;;4.47;2.60;;;17.10;19.70;;;;;;10489161;28;20738;-71
2021/04/05 12:27:42;;;;;;;4.27;2.70;;;17.10;19.50;;;;;;10489710;28;20230;-71
2021/04/05 12:32:47;;;;;;;4.13;2.73;;;17.10;19.20;;;;;;10501645;28;20729;-71
2021/04/05 12:37:55;;;;;;;5.27;2.50;;;17.10;19.60;;;;;;10515742;28;20601;-71
2021/04/05 12:43:04;;;;;;;6.47;1.90;;;17.10;19.60;;;;;;10498741;28;20715;-71
2021/04/05 12:48:10;;;;;;;3.07;1.50;;;17.10;17.90;;;;;;10498995;28;20227;-71
2021/04/05 12:53:13;;;;;;;2.70;1.63;;;17.20;18.40;;;;;;10492238;28;20238;-71
2021/04/05 12:58:16;;;;;;;5.03;1.70;;;17.20;17.90;;;;;;10495473;28;20708;-71
2021/04/05 13:03:21;;;;;;;4.67;1.70;;;17.10;17.50;;;;;;10495970;28;20271;-71
2021/04/05 13:08:29;;;;;;;4.67;1.80;;;16.90;16.70;;;;;;10495683;28;20226;-71
2021/04/05 13:13:37;;;;;;;6.77;1.83;;;16.90;16.60;;;;;;10505474;28;20231;-71
2021/04/05 13:18:46;;;;;;;3.67;1.57;;;16.70;17.10;;;;;;10495019;28;20602;-71
2021/04/05 13:23:54;;;;;;;2.73;1.60;;;16.60;17.60;;;;;;10494341;28;20241;-71
2021/04/05 13:28:58;;;;;;;2.53;1.60;;;16.50;17.30;;;;;;10488267;28;20228;-70
2021/04/05 13:34:03;;;;;;;3.60;2.00;;;16.40;18.20;;;;;;10492930;28;20232;-71
2021/04/05 13:39:08;;;;;;;4.57;1.93;;;16.30;18.10;;;;;;10489546;28;20323;-71
2021/04/05 13:44:14;;;;;;;4.33;1.70;;;16.20;17.80;;;;;;10487145;28;20316;-71
2021/04/05 13:49:23;;;;;;;3.50;1.90;;;16.10;18.10;;;;;;10490363;28;20696;-71
2021/04/05 13:54:28;;;;;;;6.57;2.17;;;16.00;18.10;;;;;;10490736;28;20704;-71
2021/04/05 13:59:32;;;;;;;3.43;2.03;;;16.00;18.40;;;;;;10489353;28;20221;-71
2021/04/05 14:04:43;;;;;;;2.67;2.10;;;15.90;18.40;;;;;;10492811;28;20240;-71
2021/04/05 14:09:47;;;;;;;3.37;1.90;;;15.80;18.40;;;;;;10491720;28;20224;-71
2021/04/05 14:14:49;;;;;;;3.47;2.33;;;15.70;18.50;;;;;;10486675;28;20239;-71
2021/04/05 14:19:55;;;;;;;5.37;2.10;;;15.70;18.60;;;;;;10490725;28;20600;-71
2021/04/05 14:25:03;;;;;;;2.97;2.07;;;15.60;18.50;;;;;;10489785;28;20723;-71
2021/04/05 14:30:10;;;;;;;4.43;2.30;;;15.60;18.50;;;;;;10483440;28;20595;-71
2021/04/05 14:35:14;;;;;;;4.37;2.33;;;15.40;18.50;;;;;;10484466;28;20224;-71
2021/04/05 14:40:20;;;;;;;5.07;2.47;;;15.40;18.70;;;;;;10488177;28;20228;-71
2021/04/05 14:45:24;;;;;;;4.03;2.20;;;15.30;18.70;;;;;;10482620;28;20314;-71
2021/04/05 14:50:28;;;;;;;4.17;2.40;;;15.20;18.90;;;;;;10490389;28;20220;-71
2021/04/05 14:55:35;;;;;;;4.00;2.70;;;15.20;19.10;;;;;;10487225;28;20599;-71
2021/04/05 15:00:38;;;;;;;7.63;3.50;;;15.20;18.80;;;;;;10494784;28;20228;-71
2021/04/05 15:05:42;;;;;;;4.00;2.83;;;15.10;19.00;;;;;;10489010;28;20232;-70
2021/04/05 15:10:51;;;;;;;5.07;2.63;;;15.10;19.00;;;;;;10493221;28;20603;-70
2021/04/05 15:15:55;;;;;;;23.23;3.37;;;15.00;18.50;;;;;;10482331;28;20224;-70
2021/04/05 15:20:58;;;;;;;5.93;2.43;;;14.80;18.70;;;;;;10477706;28;20234;-70
2021/04/05 15:26:04;;;;;;;6.03;3.07;;;14.70;19.40;;;;;;10489849;28;20224;-70
2021/04/05 15:31:15;;;;;;;5.93;2.80;;;14.50;19.50;;;;;;10483366;28;20217;-70
2021/04/05 15:36:26;;;;;;;6.73;3.20;;;14.30;19.70;;;;;;10490183;28;20232;-70
2021/04/05 15:41:32;;;;;;;5.37;3.33;;;14.20;19.80;;;;;;10488332;28;20243;-70
2021/04/05 15:46:39;;;;;;;10.03;3.10;;;14.20;20.00;;;;;;10472454;28;20239;-71
2021/04/05 15:51:49;;;;;;;6.00;3.10;;;14.10;20.20;;;;;;10480266;28;20731;-70
2021/04/05 15:56:58;;;;;;;7.73;5.07;;;14.10;20.40;;;;;;10469915;28;20315;-70
2021/04/05 16:02:02;;;;;;;13.33;6.13;;;14.10;21.30;;;;;;10480585;28;20594;-70
2021/04/05 16:07:10;;;;;;;10.57;7.63;;;14.00;22.40;;;;;;10481947;28;20746;-70
2021/04/05 16:12:21;;;;;;;10.17;7.20;;;13.70;23.10;;;;;;10488975;28;20720;-70
2021/04/05 16:17:28;;;;;;;9.77;7.50;;;13.40;23.60;;;;;;10475010;28;20738;-70
2021/04/05 16:22:33;;;;;;;11.93;8.07;;;13.20;23.60;;;;;;10476443;28;20235;-70
2021/04/05 16:27:38;;;;;;;11.03;7.70;;;12.90;24.50;;;;;;10481543;28;20232;-70
2021/04/05 16:32:47;;;;;;;8.70;7.57;;;12.60;25.00;;;;;;10482898;28;20228;-70
2021/04/05 16:37:51;;;;;;;7.97;7.17;;;12.30;26.20;;;;;;10477770;28;20262;-70
2021/04/05 16:42:56;;;;;;;6.63;6.03;;;12.00;26.40;;;;;;10478433;28;20239;-70
2021/04/05 16:48:03;;;;;;;5.63;4.70;;;11.60;26.60;;;;;;10477212;28;20246;-70
2021/04/05 16:53:13;;;;;;;3.20;2.90;;;11.40;26.70;;;;;;10473718;28;20231;-70
2021/04/05 16:58:23;;;;;;;2.70;2.13;;;11.20;27.20;;;;;;10476108;28;20237;-70
2021/04/05 17:03:28;;;;;;;1.57;1.47;;;11.00;27.90;;;;;;10478595;28;20235;-70
2021/04/05 17:08:34;;;;;;;1.20;1.10;;;10.70;27.80;;;;;;10481200;28;20227;-70
2021/04/05 17:13:41;;;;;;;0.70;0.70;;;10.30;27.50;;;;;;10480885;28;20648;-70
2021/04/05 17:18:44;;;;;;;0.60;0.60;;;10.00;27.30;;;;;;10475639;28;20735;-70
2021/04/05 17:23:48;;;;;;;0.70;0.60;;;9.70;27.60;;;;;;10479923;28;20315;-70
2021/04/05 17:28:57;;;;;;;1.47;1.37;;;9.30;28.00;;;;;;10483680;28;20236;-69
2021/04/05 17:34:08;;;;;;;0.60;0.60;;;8.90;28.40;;;;;;10485944;28;20232;-70
2021/04/05 17:39:15;;;;;;;0.80;0.80;;;8.60;29.50;;;;;;10479955;28;20232;-70
2021/04/05 17:44:21;;;;;;;0.73;0.70;;;8.30;28.50;;;;;;10484044;28;20235;-70
2021/04/05 17:49:44;;;;;;;0.70;0.70;;;8.10;29.20;;;;;;10486319;28;20228;-70
2021/04/05 17:54:55;;;;;;;0.40;0.40;;;8.00;30.00;;;;;;10491006;28;20282;-70
2021/04/05 18:00:09;;;;;;;1.00;0.70;;;7.90;30.00;;;;;;10483141;28;20608;-70
2021/04/05 18:05:47;;;;;;;0.70;0.70;;;7.70;30.70;;;;;;10486756;28;20240;-70
2021/04/05 18:11:05;;;;;;;0.70;0.70;;;7.60;30.00;;;;;;10485568;28;21016;-70
2021/04/05 18:16:19;;;;;;;0.93;0.90;;;7.50;30.10;;;;;;10482161;28;20963;-70
2021/04/05 18:21:49;;;;;;;1.07;0.80;;;7.40;31.00;;;;;;10480988;28;20767;-70
2021/04/05 18:26:57;;;;;;;3.53;1.70;;;7.20;31.30;;;;;;10484867;28;20230;-69
2021/04/05 18:32:09;;;;;;;0.80;0.80;;;6.80;30.90;;;;;;10479684;28;20744;-69
2021/04/05 18:37:15;;;;;;;0.80;0.80;;;6.50;32.00;;;;;;10481509;28;20221;-69
2021/04/05 18:42:20;;;;;;;0.70;0.70;;;6.20;31.30;;;;;;10480872;28;20236;-69
2021/04/05 18:47:32;;;;;;;0.70;0.70;;;6.00;32.10;;;;;;10466117;28;20224;-69
2021/04/05 18:52:43;;;;;;;1.33;0.60;;;6.00;34.40;;;;;;10474815;28;20242;-68
2021/04/05 18:57:48;;;;;;;0.80;0.80;;;5.70;33.80;;;;;;10480479;28;20308;-68
2021/04/05 19:03:02;;;;;;;0.60;0.60;;;5.60;33.70;;;;;;10470194;28;20227;-68
2021/04/05 19:08:11;;;;;;;0.70;0.70;;;5.60;33.60;;;;;;10443450;22;20213;-69
2021/04/05 19:13:26;;;;;;;0.50;0.50;;;5.70;32.20;;;;;;10348320;28;20319;-68
2021/04/05 19:18:43;;;;;;;0.60;0.60;;;5.70;33.80;;;;;;10375439;28;20249;-68
2021/04/05 19:24:07;;;;;;;0.50;0.50;;;5.80;33.90;;;;;;10393639;28;20264;-68
2021/04/05 19:29:21;;;;;;;0.50;0.50;;;5.60;33.10;;;;;;10393354;28;20690;-67
2021/04/05 19:34:56;;;;;;;0.60;0.60;;;5.60;32.70;;;;;;10395016;28;20315;-69
2021/04/05 19:40:28;;;;;;;2.67;0.70;;;5.50;34.40;;;;;;10381456;28;20313;-69
2021/04/05 19:45:49;;;;;;;1.13;0.77;;;5.40;33.20;;;;;;10399833;28;20221;-72
2021/04/05 19:51:11;;;;;;;1.23;0.60;;;5.10;32.10;;;;;;10397830;28;20324;-72
2021/04/05 19:57:00;;;;;;;0.63;0.60;;;4.80;33.10;;;;;;10405590;28;20574;-74
2021/04/05 20:02:18;;;;;;;0.60;0.60;;;4.70;32.50;;;;;;10374980;28;20237;-74
2021/04/05 20:07:32;;;;;;;2.10;0.57;;;4.60;31.50;;;;;;10419588;28;20250;-74
2021/04/05 20:12:56;;;;;;;0.87;0.70;;;4.60;30.90;;;;;;10446354;28;20251;-74
2021/04/05 20:18:07;;;;;;;0.77;0.50;;;4.60;31.70;;;;;;10442771;28;20610;-74
2021/04/05 20:23:18;;;;;;;1.63;0.77;;;4.60;29.80;;;;;;10446949;28;20235;-74
2021/04/05 20:28:25;;;;;;;0.80;0.70;;;4.70;30.00;;;;;;10442683;28;20604;-74
2021/04/05 20:33:40;;;;;;;0.93;0.50;;;4.80;29.70;;;;;;10446330;28;20608;-70
2021/04/05 20:38:47;;;;;;;1.07;0.80;;;4.80;30.00;;;;;;10443356;28;20604;-70
2021/04/05 20:43:54;;;;;;;0.77;0.70;;;4.90;29.70;;;;;;10427273;28;20225;-70
2021/04/05 20:49:02;;;;;;;0.90;0.80;;;4.90;29.50;;;;;;10429793;28;20236;-73
2021/04/05 20:54:11;;;;;;;1.03;0.90;;;4.90;29.60;;;;;;10431356;28;20240;-73
2021/04/05 20:59:21;;;;;;;1.63;0.90;;;5.00;29.80;;;;;;10427855;28;20232;-70
2021/04/05 21:04:24;;;;;;;1.50;0.90;;;4.90;29.90;;;;;;10441406;28;20224;-73
2021/04/05 21:09:26;;;;;;;0.80;0.80;;;4.90;29.30;;;;;;10437471;28;20847;-73
2021/04/05 21:14:35;;;;;;;3.37;1.10;;;4.80;29.20;;;;;;10442292;28;20267;-70
2021/04/05 21:19:41;;;;;;;1.77;0.90;;;4.90;29.80;;;;;;10435978;28;20316;-72
2021/04/05 21:24:47;;;;;;;1.10;1.00;;;4.90;29.60;;;;;;10436816;28;20228;-73
2021/04/05 21:29:53;;;;;;;1.27;0.93;;;4.90;29.20;;;;;;10436661;28;20233;-70
2021/04/05 21:35:00;;;;;;;1.07;0.97;;;4.90;29.10;;;;;;10434160;28;20244;-73
2021/04/05 21:40:06;;;;;;;1.80;0.90;;;4.90;29.40;;;;;;10436674;28;20946;-72
2021/04/05 21:45:14;;;;;;;2.20;1.00;;;5.00;29.10;;;;;;10436724;28;20232;-73
2021/04/05 21:50:18;;;;;;;1.20;1.00;;;5.00;29.10;;;;;;10438205;28;20232;-73
2021/04/05 21:55:29;;;;;;;1.60;1.00;;;5.00;28.70;;;;;;10438732;28;20228;-70
2021/04/05 22:00:39;;;;;;;1.10;1.00;;;5.00;29.30;;;;;;10438174;28;20233;-72
2021/04/05 22:05:49;;;;;;;1.90;0.90;;;5.10;29.40;;;;;;10438564;28;21353;-72
2021/04/05 22:10:56;;;;;;;0.83;0.80;;;5.20;29.30;;;;;;10432697;28;20233;-72
2021/04/05 22:16:08;;;;;;;1.63;1.07;;;5.10;29.00;;;;;;10437865;28;20224;-72
2021/04/05 22:21:21;;;;;;;2.10;0.90;;;5.00;29.30;;;;;;10433115;28;20602;-73
2021/04/05 22:26:26;;;;;;;1.77;1.00;;;4.90;28.90;;;;;;10431091;28;20893;-70
2021/04/05 22:31:31;;;;;;;1.40;1.03;;;4.70;29.00;;;;;;10434037;28;20599;-70
2021/04/05 22:36:45;;;;;;;1.50;1.10;;;4.60;29.20;;;;;;10442292;28;20235;-73
2021/04/05 22:41:50;;;;;;;1.50;1.10;;;4.50;29.70;;;;;;10455379;28;20608;-73
2021/04/05 22:46:59;;;;;;;1.20;1.10;;;4.50;29.20;;;;;;10448532;28;20247;-73
2021/04/05 22:52:11;;;;;;;2.47;1.23;;;4.50;29.70;;;;;;10458603;28;20317;-73
2021/04/05 22:57:15;;;;;;;1.40;1.10;;;4.60;29.70;;;;;;10449243;28;20770;-73
2021/04/05 23:02:23;;;;;;;2.03;1.13;;;4.40;29.30;;;;;;10450088;28;20233;-73
2021/04/05 23:07:32;;;;;;;2.00;1.07;;;4.50;29.70;;;;;;10453494;28;20610;-73
2021/04/05 23:12:40;;;;;;;2.67;1.30;;;4.50;29.70;;;;;;10449730;28;20726;-73
2021/04/05 23:17:46;;;;;;;2.00;1.20;;;4.70;29.70;;;;;;10450219;28;20800;-73
2021/04/05 23:22:59;;;;;;;2.47;1.40;;;4.70;29.70;;;;;;10446436;28;20242;-73
2021/04/05 23:28:05;;;;;;;2.67;1.30;;;4.60;29.70;;;;;;10450667;28;20225;-73
2021/04/05 23:33:18;;;;;;;2.53;1.30;;;4.60;29.30;;;;;;10448120;28;20594;-73
2021/04/05 23:38:23;;;;;;;1.63;1.13;;;4.60;29.40;;;;;;10449784;28;20228;-73
2021/04/05 23:43:28;;;;;;;1.60;1.10;;;4.50;29.50;;;;;;10453978;28;20225;-73
2021/04/05 23:48:38;;;;;;;1.07;1.00;;;4.50;28.90;;;;;;10448353;28;20224;-73
2021/04/05 23:53:44;;;;;;;1.77;1.40;;;4.40;29.20;;;;;;10449270;28;20243;-73
2021/04/05 23:58:55;;;;;;;3.90;1.77;;;4.40;29.00;;;;;;10449622;28;20231;-73
